createdAt,value
2022-10-03T00:00:16.465Z,62
2022-10-03T00:05:16.541Z,63
2022-10-03T00:10:16.453Z,64
2022-10-03T00:15:16.611Z,63
2022-10-03T00:20:16.476Z,63
2022-10-03T00:25:16.474Z,63
2022-10-03T00:30:16.595Z,63
2022-10-03T00:35:16.479Z,62
2022-10-03T00:40:16.581Z,61
2022-10-03T00:45:16.634Z,61
2022-10-03T00:50:16.533Z,60
2022-10-03T00:55:16.592Z,60
2022-10-03T01:00:16.636Z,60
2022-10-03T01:05:16.779Z,60
2022-10-03T01:10:16.796Z,60
2022-10-03T01:15:16.819Z,59
2022-10-03T01:20:16.928Z,59
2022-10-03T01:25:16.644Z,57
2022-10-03T01:30:16.604Z,57
2022-10-03T01:35:16.694Z,57
2022-10-03T01:40:16.672Z,57
2022-10-03T01:45:16.778Z,58
2022-10-03T01:50:16.881Z,58
2022-10-03T01:55:16.697Z,59
2022-10-03T02:00:16.703Z,60
2022-10-03T02:05:16.687Z,60
2022-10-03T02:10:16.661Z,61
2022-10-03T02:15:16.712Z,62
2022-10-03T02:20:16.675Z,63
2022-10-03T02:25:16.744Z,61
2022-10-03T02:30:16.763Z,60
2022-10-03T02:35:16.737Z,60
2022-10-03T02:40:16.805Z,60
2022-10-03T02:45:16.723Z,60
2022-10-03T02:50:16.864Z,60
2022-10-03T02:55:16.818Z,58
2022-10-03T03:00:16.824Z,57
2022-10-03T03:05:16.819Z,57
2022-10-03T03:10:16.857Z,59
2022-10-03T03:15:16.865Z,60
2022-10-03T03:20:16.941Z,62
2022-10-03T03:25:16.855Z,64
2022-10-03T03:30:16.866Z,65
2022-10-03T03:35:16.871Z,66
2022-10-03T03:40:17.027Z,66
2022-10-03T03:45:17.088Z,65
2022-10-03T03:50:16.929Z,63
2022-10-03T03:55:16.906Z,63
2022-10-03T04:00:15.946Z,62
2022-10-03T04:05:16.030Z,63
2022-10-03T04:10:15.945Z,64
2022-10-03T04:15:16.061Z,66
2022-10-03T04:20:15.860Z,65
2022-10-03T04:25:16.102Z,66
2022-10-03T04:30:16.053Z,65
2022-10-03T04:35:16.004Z,65
2022-10-03T04:40:16.155Z,63
2022-10-03T04:45:16.144Z,62
2022-10-03T04:50:16.029Z,63
2022-10-03T04:55:16.034Z,63
2022-10-03T05:00:16.043Z,63
2022-10-03T05:05:16.265Z,64
2022-10-03T05:10:16.189Z,64
2022-10-03T05:15:16.259Z,63
2022-10-03T05:20:16.175Z,63
2022-10-03T05:25:16.215Z,64
2022-10-03T05:30:16.241Z,64
2022-10-03T05:35:16.249Z,64
2022-10-03T05:40:16.319Z,64
2022-10-03T05:45:16.272Z,64
2022-10-03T05:50:18.227Z,65
2022-10-03T05:55:16.140Z,65
2022-10-03T06:00:16.280Z,65
2022-10-03T06:05:16.170Z,65
2022-10-03T06:10:16.363Z,65
2022-10-03T06:15:16.231Z,65
2022-10-03T06:20:16.115Z,65
2022-10-03T06:25:16.251Z,65
2022-10-03T06:30:16.310Z,65
2022-10-03T06:35:16.204Z,65
2022-10-03T06:40:16.234Z,65
2022-10-03T06:45:16.309Z,65
2022-10-03T06:50:16.244Z,66
2022-10-03T06:55:16.272Z,66
2022-10-03T07:00:16.281Z,66
2022-10-03T07:05:16.538Z,67
2022-10-03T07:10:16.529Z,67
2022-10-03T07:15:16.395Z,67
2022-10-03T07:20:16.402Z,66
2022-10-03T07:25:16.385Z,66
2022-10-03T07:30:16.509Z,65
2022-10-03T07:35:16.569Z,66
2022-10-03T07:40:16.383Z,65
2022-10-03T07:45:16.747Z,66
2022-10-03T07:50:16.439Z,66
2022-10-03T07:55:16.378Z,66
2022-10-03T08:00:16.386Z,66
2022-10-03T08:05:16.546Z,65
2022-10-03T08:10:16.464Z,65
2022-10-03T08:15:16.698Z,65
2022-10-03T08:20:16.345Z,66
2022-10-03T08:25:16.475Z,66
2022-10-03T08:30:16.573Z,66
2022-10-03T08:35:16.463Z,66
2022-10-03T08:40:16.471Z,66
2022-10-03T08:45:16.536Z,66
2022-10-03T08:50:16.590Z,66
2022-10-03T08:55:16.571Z,66
2022-10-03T09:00:16.592Z,67
2022-10-03T09:05:16.563Z,67
2022-10-03T09:10:16.635Z,68
2022-10-03T09:15:16.610Z,66
2022-10-03T09:20:16.567Z,66
2022-10-03T09:25:16.642Z,66
2022-10-03T09:30:16.628Z,66
2022-10-03T09:35:16.615Z,66
2022-10-03T09:40:17.357Z,66
2022-10-03T09:45:16.743Z,66
2022-10-03T09:50:16.825Z,66
2022-10-03T09:55:16.677Z,66
2022-10-03T10:00:16.845Z,67
2022-10-03T10:05:16.775Z,67
2022-10-03T10:10:16.705Z,66
2022-10-03T10:15:16.689Z,67
2022-10-03T10:20:16.593Z,67
2022-10-03T10:25:16.639Z,66
2022-10-03T10:30:16.703Z,65
2022-10-03T10:35:16.870Z,65
2022-10-03T10:40:16.736Z,65
2022-10-03T10:45:16.811Z,65
2022-10-03T10:50:16.790Z,65
2022-10-03T10:55:16.767Z,65
2022-10-03T11:00:16.860Z,65
2022-10-03T11:05:16.882Z,65
2022-10-03T11:10:16.791Z,65
2022-10-03T11:15:16.801Z,65
2022-10-03T11:20:16.883Z,65
2022-10-03T11:25:16.833Z,64
2022-10-03T11:30:16.839Z,63
2022-10-03T11:35:16.884Z,63
2022-10-03T11:40:16.917Z,64
2022-10-03T11:45:16.937Z,63
2022-10-03T11:50:16.881Z,63
2022-10-03T11:55:16.796Z,63
2022-10-03T12:00:16.926Z,63
2022-10-03T12:05:16.884Z,63
2022-10-03T12:10:16.936Z,63
2022-10-03T12:15:16.998Z,63
2022-10-03T12:20:16.875Z,62
2022-10-03T12:25:17.041Z,63
2022-10-03T12:30:16.947Z,63
2022-10-03T12:35:17.025Z,64
2022-10-03T12:40:17.105Z,63
2022-10-03T12:45:17.027Z,64
2022-10-03T12:50:17.092Z,62
2022-10-03T12:55:17.014Z,62
2022-10-03T13:00:17.110Z,61
2022-10-03T13:05:17.195Z,61
2022-10-03T13:10:17.158Z,61
2022-10-03T13:15:17.088Z,60
2022-10-03T13:20:17.304Z,62
2022-10-03T13:25:17.061Z,63
2022-10-03T13:30:17.228Z,63
2022-10-03T13:35:17.111Z,62
2022-10-03T13:40:17.088Z,63
2022-10-03T13:45:17.389Z,62
2022-10-03T13:50:17.104Z,61
2022-10-03T13:55:17.207Z,60
2022-10-03T14:00:17.364Z,59
2022-10-03T14:05:17.111Z,59
2022-10-03T14:10:17.368Z,60
2022-10-03T14:15:17.156Z,60
2022-10-03T14:20:17.085Z,60
2022-10-03T14:25:17.158Z,60
2022-10-03T14:30:17.207Z,59
2022-10-03T14:35:17.227Z,59
2022-10-03T14:40:17.304Z,60
2022-10-03T14:45:17.304Z,59
2022-10-03T14:50:17.231Z,60
2022-10-03T14:55:17.255Z,60
2022-10-03T15:00:17.382Z,59
2022-10-03T15:05:17.296Z,60
2022-10-03T15:10:17.281Z,60
2022-10-03T15:15:17.354Z,60
2022-10-03T15:20:17.289Z,60
2022-10-03T15:25:17.333Z,60
2022-10-03T15:30:17.301Z,60
2022-10-03T15:35:17.496Z,61
2022-10-03T15:40:17.366Z,60
2022-10-03T15:45:17.391Z,61
2022-10-03T15:50:17.511Z,62
2022-10-03T15:55:15.322Z,61
2022-10-03T16:00:15.510Z,62
2022-10-03T16:05:15.483Z,61
2022-10-03T16:10:15.584Z,62
2022-10-03T16:15:17.315Z,61
2022-10-03T16:20:15.388Z,60
2022-10-03T16:25:16.338Z,61
2022-10-03T16:30:15.652Z,62
2022-10-03T16:35:15.496Z,63
2022-10-03T16:40:15.612Z,63
2022-10-03T16:45:15.707Z,63
2022-10-03T16:50:15.581Z,63
2022-10-03T16:55:15.493Z,64
2022-10-03T17:00:15.527Z,65
2022-10-03T17:05:15.448Z,65
2022-10-03T17:10:15.525Z,64
2022-10-03T17:15:15.505Z,65
2022-10-03T17:20:15.810Z,65
2022-10-03T17:25:18.069Z,64
2022-10-03T17:30:15.596Z,63
2022-10-03T17:35:15.702Z,64
2022-10-03T17:40:15.654Z,64
2022-10-03T17:45:15.609Z,64
2022-10-03T17:50:15.610Z,65
2022-10-03T17:55:15.839Z,66
2022-10-03T18:00:15.817Z,65
2022-10-03T18:05:15.824Z,66
2022-10-03T18:10:15.642Z,66
2022-10-03T18:15:15.693Z,66
2022-10-03T18:20:15.572Z,66
2022-10-03T18:25:15.797Z,66
2022-10-03T18:30:15.745Z,66
2022-10-03T18:35:15.701Z,66
2022-10-03T18:40:15.725Z,67
2022-10-03T18:45:16.086Z,68
2022-10-03T18:50:15.914Z,69
2022-10-03T18:55:15.768Z,70
2022-10-03T19:00:15.749Z,71
2022-10-03T19:05:15.787Z,70
2022-10-03T19:10:15.807Z,71
2022-10-03T19:15:15.735Z,70
2022-10-03T19:20:15.850Z,70
2022-10-03T19:25:15.798Z,70
2022-10-03T19:30:15.800Z,70
2022-10-03T19:35:15.793Z,71
2022-10-03T19:40:15.969Z,70
2022-10-03T19:45:15.875Z,70
2022-10-03T19:50:15.795Z,70
2022-10-03T19:55:15.934Z,70
2022-10-03T20:00:16.351Z,70
2022-10-03T20:05:16.005Z,70
2022-10-03T20:10:15.936Z,70
2022-10-03T20:15:15.974Z,71
2022-10-03T20:20:16.097Z,70
2022-10-03T20:25:15.937Z,70
2022-10-03T20:30:15.944Z,70
2022-10-03T20:35:16.094Z,71
2022-10-03T20:40:15.973Z,71
2022-10-03T20:45:15.984Z,71
2022-10-03T20:50:15.988Z,70
2022-10-03T20:55:16.011Z,70
2022-10-03T21:00:16.166Z,70
2022-10-03T21:05:16.045Z,70
2022-10-03T21:10:16.011Z,70
2022-10-03T21:15:15.995Z,71
2022-10-03T21:20:16.054Z,71
2022-10-03T21:25:16.182Z,71
2022-10-03T21:30:16.195Z,71
2022-10-03T21:35:16.118Z,71
2022-10-03T21:40:16.315Z,71
2022-10-03T21:45:16.143Z,72
2022-10-03T21:50:16.975Z,72
2022-10-03T21:55:16.040Z,72
2022-10-03T22:00:16.156Z,72
2022-10-03T22:05:16.101Z,72
2022-10-03T22:10:21.127Z,72
2022-10-03T22:15:16.186Z,72
2022-10-03T22:20:16.085Z,72
2022-10-03T22:25:16.394Z,73
2022-10-03T22:30:16.420Z,72
2022-10-03T22:35:16.216Z,71
2022-10-03T22:40:16.341Z,71
2022-10-03T22:45:16.339Z,71
2022-10-03T22:50:16.231Z,71
2022-10-03T22:55:16.241Z,71
2022-10-03T23:00:16.312Z,71
2022-10-03T23:05:16.381Z,71
2022-10-03T23:10:16.233Z,70
2022-10-03T23:15:16.288Z,70
2022-10-03T23:20:16.340Z,70
2022-10-03T23:25:16.268Z,69
2022-10-03T23:30:16.295Z,69
2022-10-03T23:35:16.505Z,70
2022-10-03T23:40:16.435Z,69
2022-10-03T23:45:16.393Z,69
2022-10-03T23:50:16.404Z,68
2022-10-03T23:55:16.361Z,67
